Kezdőlap
METAR-TAF:

METAR-TAF

Repülőterek :

Brighton, Anglia

földrajzi szélesség: 50-50N, földrajzi hosszúság: 000-17W, magasság: 2 m

Jelenlegi meteorológiai megfigyelések

A jelentés 7 órával és 15 perccel ezelõtt készült, 19:50 UTC
Nyugati szél 7 kt
Hőmérséklet 4°C
Páratartalom 65%
Légköri nyomás 1013 hPa
Látótávolság 10 km, vagy több
felhőtlen 1500 m magasságban, és nincs gomolyfelhõ

METAR: EGKA 271950Z 28007KT CAVOK 04/M02 Q1013

Idő: 03:05 (03:05 UTC)

Előrejelzés

A jelentés 9 órával és 58 perccel ezelõtt készült, 17:07 UTC
Az előrejelzés 27-én 18 óra UTC és 27-én 20 óra UTC között érvényes
Északnyugati szél 12 kt
Látótávolság 10 km, vagy több
Kevés felhő 3000 lábon

TAF: EGKA 271707Z 2718/2720 32012KT 9999 FEW030

Meteorológiai megfigyelések és előrejelzések több, mint 4000 repülőtéren (METAR és TAF jelentéseket).

A térképen piros és sárga pontok jelzik az elérhető meteorológiai állomásokat.

Mozgassa az egeret a pont fölött, hogy megjelenjen az állomás neve.

Azután kattintson az időjárási megfigyelések és előrejelzések megtekintéséhez.

A térkép megváltoztatása: kattintson a fekete keresztel jelölt zöld gombra ráközelítéshez, a vonallal jelölt zöld gombra távolításhoz, vagy a zöld nyilakra a szomszédos térképek eléréséhez.


METAR-TAF: